Time;durP1;ratioP1;P1;durP2;ratioP2;P2;SDS_P1;SDS_P2;PMS_P1;PMS_P2;Temp;Humidity;BMP_temperature;BMP_pressure;BME280_temperature;BME280_humidity;BME280_pressure;Samples;Min_cycle;Max_cycle;Signal;HPM_P1;HPM_P2
2021/09/15 00:00:40;;;;;;;;;7.50;5.75;;;;;23.33;54.92;100556.66;5020412;28;45295;-59
2021/09/15 00:03:06;;;;;;;;;6.75;6.75;;;;;23.34;54.63;100557.50;5018840;28;45391;-59
2021/09/15 00:05:31;;;;;;;;;6.00;6.00;;;;;23.33;54.89;100558.44;5020491;28;45329;-59
2021/09/15 00:07:56;;;;;;;;;3.75;3.75;;;;;23.31;54.93;100558.56;5020260;28;45155;-59
2021/09/15 00:10:22;;;;;;;;;6.00;4.25;;;;;23.30;54.73;100553.31;5020204;28;45226;-59
2021/09/15 00:12:47;;;;;;;;;4.25;4.25;;;;;23.27;54.66;100562.44;5018612;28;48096;-59
2021/09/15 00:15:13;;;;;;;;;3.50;3.50;;;;;23.25;54.57;100559.00;5020024;28;45245;-59
2021/09/15 00:17:38;;;;;;;;;5.50;4.50;;;;;23.26;54.91;100566.09;5020021;28;45784;-59
2021/09/15 00:20:06;;;;;;;;;3.75;3.75;;;;;23.24;54.79;100556.44;5019678;28;45453;-59
2021/09/15 00:22:32;;;;;;;;;5.00;5.00;;;;;23.18;54.81;100553.22;5016997;28;45495;-59
2021/09/15 00:24:57;;;;;;;;;5.00;3.25;;;;;23.24;54.48;100564.47;5019971;28;45344;-59
2021/09/15 00:27:22;;;;;;;;;5.00;4.00;;;;;23.19;54.75;100565.66;5019843;28;45594;-59
2021/09/15 00:29:48;;;;;;;;;8.00;6.00;;;;;23.18;54.73;100565.75;5019708;28;45548;-59
2021/09/15 00:32:13;;;;;;;;;7.75;6.50;;;;;23.15;55.08;100552.53;5019675;28;45329;-59
2021/09/15 00:34:38;;;;;;;;;5.00;5.00;;;;;23.16;54.97;100544.41;5010061;28;45502;-59
2021/09/15 00:37:04;;;;;;;;;9.75;9.75;;;;;23.15;54.62;100540.03;5000076;28;45285;-59
2021/09/15 00:39:29;;;;;;;;;5.50;5.50;;;;;23.15;54.87;100539.16;5000120;28;45305;-59
2021/09/15 00:41:55;;;;;;;;;7.00;6.00;;;;;23.13;54.85;100536.59;4999607;28;45494;-59
2021/09/15 00:44:20;;;;;;;;;4.75;4.75;;;;;23.12;54.88;100537.53;5008088;28;45294;-59
2021/09/15 00:46:45;;;;;;;;;5.00;5.00;;;;;23.13;55.11;100535.69;5003583;28;45283;-59
2021/09/15 00:49:11;;;;;;;;;5.00;5.00;;;;;23.12;55.09;100534.84;5000168;28;45432;-59
2021/09/15 00:51:38;;;;;;;;;4.75;4.75;;;;;23.11;54.79;100529.63;5002715;28;46244;-59
2021/09/15 00:54:05;;;;;;;;;4.50;4.50;;;;;23.10;55.35;100538.63;5003506;28;45206;-59
2021/09/15 00:56:32;;;;;;;;;5.00;5.00;;;;;23.09;54.99;100535.06;5003077;28;45341;-59
2021/09/15 00:58:57;;;;;;;;;4.25;4.25;;;;;23.09;55.00;100528.84;5002914;28;45259;-59
2021/09/15 01:01:22;;;;;;;;;5.00;5.00;;;;;23.04;55.18;100513.97;5003020;28;46957;-59
2021/09/15 01:03:48;;;;;;;;;7.25;6.75;;;;;23.05;55.27;100518.34;5003346;28;45352;-59
2021/09/15 01:06:13;;;;;;;;;4.00;3.75;;;;;23.04;54.93;100513.09;5003218;28;45545;-59
2021/09/15 01:08:41;;;;;;;;;4.25;4.00;;;;;23.03;55.04;100517.59;5003489;28;45309;-59
2021/09/15 01:11:07;;;;;;;;;5.25;5.00;;;;;23.03;55.03;100519.41;5003060;28;46424;-59
2021/09/15 01:13:32;;;;;;;;;4.75;4.00;;;;;23.04;55.24;100521.13;5002717;28;45365;-59
2021/09/15 01:15:58;;;;;;;;;4.25;3.75;;;;;23.01;55.18;100524.88;5002991;28;45427;-59
2021/09/15 01:18:24;;;;;;;;;3.00;3.00;;;;;22.99;54.91;100521.47;5002935;28;45160;-59
2021/09/15 01:20:50;;;;;;;;;3.00;3.00;;;;;23.00;55.00;100514.28;5005718;28;45374;-59
2021/09/15 01:23:15;;;;;;;;;5.00;5.00;;;;;22.97;55.17;100507.31;5022987;28;45417;-59
2021/09/15 01:25:41;;;;;;;;;5.75;5.00;;;;;22.98;55.29;100508.16;5021483;28;45302;-59
2021/09/15 01:28:07;;;;;;;;;6.50;4.00;;;;;22.94;55.06;100498.63;5022529;28;45432;-59
2021/09/15 01:30:32;;;;;;;;;5.75;3.00;;;;;22.95;55.20;100501.19;5022406;28;46372;-59
2021/09/15 01:32:58;;;;;;;;;3.00;3.00;;;;;22.99;55.32;100500.03;5013344;28;45447;-59
2021/09/15 01:35:23;;;;;;;;;6.00;4.25;;;;;22.99;55.09;100505.41;5006386;28;45443;-59
2021/09/15 01:37:48;;;;;;;;;6.25;4.50;;;;;23.00;55.27;100506.25;5002899;28;45395;-59
2021/09/15 01:40:14;;;;;;;;;6.25;5.25;;;;;23.00;55.30;100507.09;5002407;28;45318;-59
2021/09/15 01:42:40;;;;;;;;;7.00;6.25;;;;;23.01;55.21;100507.97;5002620;28;45469;-59
2021/09/15 01:45:08;;;;;;;;;5.50;5.50;;;;;23.00;55.31;100506.25;5002441;28;45270;-59
2021/09/15 01:47:34;;;;;;;;;5.00;4.75;;;;;22.98;55.25;100509.03;5002628;28;45546;-59
2021/09/15 01:49:59;;;;;;;;;3.75;3.75;;;;;22.97;55.66;100504.63;5002267;28;45467;-59
2021/09/15 01:52:25;;;;;;;;;7.00;5.25;;;;;23.02;55.33;100509.69;5002633;28;45219;-59
2021/09/15 01:54:50;;;;;;;;;5.25;5.00;;;;;23.01;55.48;100506.13;5002592;28;45448;-59
2021/09/15 01:57:16;;;;;;;;;6.00;4.00;;;;;23.00;55.54;100496.38;5002181;28;45487;-59
2021/09/15 01:59:41;;;;;;;;;7.00;4.25;;;;;23.01;55.43;100498.09;5001959;28;45409;-59
2021/09/15 02:02:11;;;;;;;;;5.00;5.00;;;;;23.00;55.72;100496.38;5002395;28;45332;-59
2021/09/15 02:04:37;;;;;;;;;8.00;6.00;;;;;23.02;55.70;100509.69;5017276;28;45261;-59
2021/09/15 02:07:02;;;;;;;;;7.00;3.75;;;;;23.02;55.51;100505.16;5022341;28;45221;-59
2021/09/15 02:09:27;;;;;;;;;5.25;4.00;;;;;23.02;55.41;100515.03;5021921;28;45170;-59
2021/09/15 02:11:53;;;;;;;;;4.25;4.25;;;;;23.03;55.61;100522.97;5021896;28;45269;-59
2021/09/15 02:14:18;;;;;;;;;7.00;4.00;;;;;22.95;55.82;100508.41;5021954;28;45236;-59
2021/09/15 02:16:44;;;;;;;;;5.00;4.75;;;;;23.04;55.53;100524.69;5022070;28;45237;-59
2021/09/15 02:19:10;;;;;;;;;5.25;5.25;;;;;23.03;55.62;100520.28;5021756;28;45601;-59
2021/09/15 02:21:35;;;;;;;;;4.25;4.25;;;;;22.96;55.64;100516.31;5018453;28;45455;-59
2021/09/15 02:24:01;;;;;;;;;5.25;5.25;;;;;23.01;55.64;100516.00;5021982;28;45306;-59
2021/09/15 02:26:28;;;;;;;;;7.25;6.75;;;;;23.03;55.74;100516.72;5021897;28;45269;-59
2021/09/15 02:28:53;;;;;;;;;4.00;4.00;;;;;23.02;55.67;100509.69;5021522;28;46202;-59
2021/09/15 02:31:19;;;;;;;;;5.00;5.00;;;;;23.03;55.84;100512.25;5020350;28;45322;-59
2021/09/15 02:33:44;;;;;;;;;4.00;4.00;;;;;23.01;55.83;100514.16;5019313;28;45364;-59
2021/09/15 02:36:09;;;;;;;;;8.00;6.00;;;;;23.00;55.84;100511.59;5001923;28;45472;-59
2021/09/15 02:38:35;;;;;;;;;5.00;5.00;;;;;22.97;56.12;100511.84;5001539;28;47055;-59
2021/09/15 02:41:00;;;;;;;;;4.00;4.00;;;;;22.97;55.74;100515.34;5001948;28;45383;-58
2021/09/15 02:43:25;;;;;;;;;8.50;6.75;;;;;22.99;55.77;100528.63;5001644;28;45261;-59
2021/09/15 02:45:51;;;;;;;;;6.25;4.25;;;;;22.92;55.94;100524.66;5001912;28;45159;-59
2021/09/15 02:48:16;;;;;;;;;6.50;5.75;;;;;22.98;55.72;100540.31;5001537;28;46211;-58
2021/09/15 02:50:41;;;;;;;;;6.00;6.00;;;;;22.95;55.95;100540.53;5005351;28;45218;-58
2021/09/15 02:53:09;;;;;;;;;5.75;5.75;;;;;22.96;55.94;100543.09;5016461;28;45444;-59
2021/09/15 02:55:34;;;;;;;;;5.25;5.00;;;;;22.89;55.91;100531.09;5021451;28;45217;-58
2021/09/15 02:57:59;;;;;;;;;6.75;6.00;;;;;22.93;56.12;100540.66;5020522;28;45249;-58
2021/09/15 03:00:25;;;;;;;;;5.75;4.50;;;;;22.93;55.97;100535.28;5021432;28;45174;-59
2021/09/15 03:02:50;;;;;;;;;5.75;5.75;;;;;22.92;55.86;100530.03;5021284;28;45412;-59
2021/09/15 03:05:15;;;;;;;;;5.25;5.25;;;;;22.89;56.19;100526.63;5021243;28;45225;-59
2021/09/15 03:07:41;;;;;;;;;5.00;5.00;;;;;22.91;56.22;100529.19;5021029;28;45313;-59
2021/09/15 03:10:07;;;;;;;;;8.25;6.00;;;;;22.90;56.03;100522.09;5021237;28;45344;-59
2021/09/15 03:12:33;;;;;;;;;6.50;5.75;;;;;22.91;56.14;100517.63;5020500;28;45304;-58
2021/09/15 03:14:59;;;;;;;;;8.00;6.75;;;;;22.89;56.30;100515.91;5020902;28;45346;-59
2021/09/15 03:17:24;;;;;;;;;8.25;7.25;;;;;22.90;56.47;100514.06;5020624;28;46153;-59
2021/09/15 03:19:49;;;;;;;;;8.25;6.00;;;;;22.90;55.99;100514.06;5021039;28;45400;-59
2021/09/15 03:22:15;;;;;;;;;8.75;8.00;;;;;22.90;56.11;100508.69;5017443;28;45400;-59
2021/09/15 03:24:41;;;;;;;;;8.25;8.25;;;;;22.89;56.20;100512.34;5020970;28;45447;-59
2021/09/15 03:27:06;;;;;;;;;7.00;7.00;;;;;22.89;55.92;100512.34;5019393;28;46144;-59
2021/09/15 03:29:33;;;;;;;;;7.00;6.50;;;;;22.87;56.28;100506.25;5020689;28;45406;-59
2021/09/15 03:31:59;;;;;;;;;7.25;6.00;;;;;22.88;56.08;100511.50;5020847;28;45234;-59
2021/09/15 03:34:24;;;;;;;;;7.25;6.25;;;;;22.88;56.26;100510.66;5012221;28;45450;-59
2021/09/15 03:36:50;;;;;;;;;5.50;4.75;;;;;22.87;56.20;100517.81;5000753;28;45491;-59
2021/09/15 03:39:15;;;;;;;;;6.00;5.00;;;;;22.88;56.20;100529.41;5000785;28;45296;-59
2021/09/15 03:41:41;;;;;;;;;7.50;7.00;;;;;22.87;56.50;100533.88;5001087;28;45436;-59
2021/09/15 03:44:06;;;;;;;;;9.75;7.75;;;;;22.88;56.32;100540.13;5007533;28;45394;-59
2021/09/15 03:46:32;;;;;;;;;9.75;8.50;;;;;22.88;56.29;100535.59;5005763;28;46593;-59
2021/09/15 03:48:57;;;;;;;;;7.25;5.00;;;;;22.88;56.18;100532.09;5000748;28;45330;-59
2021/09/15 03:51:23;;;;;;;;;8.00;7.50;;;;;22.87;56.32;100527.69;5000751;28;45307;-59
2021/09/15 03:53:48;;;;;;;;;8.00;7.50;;;;;22.87;56.31;100527.69;5000755;28;45404;-59
2021/09/15 03:56:14;;;;;;;;;6.25;6.25;;;;;22.87;56.34;100533.03;5000422;28;45319;-59
2021/09/15 03:58:39;;;;;;;;;6.00;5.00;;;;;22.87;56.28;100541.06;5000146;28;45321;-59
2021/09/15 04:01:04;;;;;;;;;9.75;7.00;;;;;22.85;56.38;100545.66;5000684;28;45312;-59
2021/09/15 04:03:30;;;;;;;;;9.00;6.00;;;;;22.83;56.20;100536.88;5000650;28;45532;-59
2021/09/15 04:05:55;;;;;;;;;6.50;6.00;;;;;22.84;56.48;100539.47;5000304;28;46081;-59
2021/09/15 04:08:20;;;;;;;;;8.00;5.25;;;;;22.84;56.28;100538.59;5000587;28;45313;-59
2021/09/15 04:10:46;;;;;;;;;9.00;9.00;;;;;22.81;56.35;100545.03;5000485;28;45250;-59
2021/09/15 04:13:11;;;;;;;;;8.50;8.00;;;;;22.81;56.52;100544.19;5000447;28;45406;-59
2021/09/15 04:15:37;;;;;;;;;6.75;5.50;;;;;22.77;56.45;100537.31;5000211;28;46236;-59
2021/09/15 04:18:02;;;;;;;;;9.25;9.00;;;;;22.79;56.53;100546.97;5000261;28;45246;-59
2021/09/15 04:20:28;;;;;;;;;7.00;6.00;;;;;22.78;56.58;100547.03;5000358;28;45275;-59
2021/09/15 04:22:54;;;;;;;;;5.25;4.00;;;;;22.75;56.50;100548.13;5020168;28;45442;-59
2021/09/15 04:33:31;;;;;;;;;7.25;6.75;;;;;22.70;56.23;100531.50;5019212;28;45410;-59
2021/09/15 04:35:56;;;;;;;;;8.50;7.00;;;;;22.70;56.67;100540.41;5000042;28;46241;-59
2021/09/15 04:38:22;;;;;;;;;9.50;9.25;;;;;22.68;56.73;100522.75;5000086;28;45251;-59
2021/09/15 04:40:47;;;;;;;;;6.75;6.50;;;;;22.71;56.62;100528.72;5000165;28;45227;-60
2021/09/15 04:43:12;;;;;;;;;8.00;6.75;;;;;22.70;56.57;100536.88;4999738;28;45456;-59
2021/09/15 04:45:39;;;;;;;;;7.25;6.00;;;;;22.69;56.94;100530.66;4999984;28;46219;-59
2021/09/15 04:48:05;;;;;;;;;7.75;7.75;;;;;22.70;56.69;100531.50;5009820;28;45223;-59
2021/09/15 04:50:30;;;;;;;;;9.50;6.50;;;;;22.69;56.83;100533.34;5019897;28;45251;-59
2021/09/15 04:52:56;;;;;;;;;9.25;8.25;;;;;22.68;56.92;100528.09;5019711;28;45198;-59
2021/09/15 04:55:22;;;;;;;;;11.25;8.00;;;;;22.69;56.93;100541.38;5019616;28;46108;-59
2021/09/15 04:57:48;;;;;;;;;7.25;7.00;;;;;22.69;56.67;100540.50;5017529;28;45359;-59
2021/09/15 05:00:13;;;;;;;;;7.25;7.25;;;;;22.68;56.49;100536.13;5019313;28;45270;-59
2021/09/15 05:02:39;;;;;;;;;9.50;7.75;;;;;22.68;56.73;100538.81;5019097;28;45341;-60
2021/09/15 05:05:04;;;;;;;;;8.00;8.00;;;;;22.65;57.00;100536.31;5019201;28;46123;-60
2021/09/15 05:07:30;;;;;;;;;10.25;8.25;;;;;22.65;56.82;100537.16;5019257;28;45344;-60
2021/09/15 05:09:55;;;;;;;;;7.75;7.75;;;;;22.64;56.82;100546.19;4998322;28;45434;-60
2021/09/15 05:12:21;;;;;;;;;11.00;8.25;;;;;22.60;56.96;100533.94;5012793;28;45593;-61
2021/09/15 05:14:46;;;;;;;;;7.75;6.75;;;;;22.60;56.62;100538.47;5018678;28;46227;-60
2021/09/15 05:17:11;;;;;;;;;6.75;6.50;;;;;22.60;56.65;100544.66;5017529;28;45748;-60
2021/09/15 05:19:37;;;;;;;;;8.00;8.00;;;;;22.58;56.87;100540.38;5017570;28;45366;-60
2021/09/15 05:22:03;;;;;;;;;8.00;6.75;;;;;22.58;57.06;100548.41;5015368;28;45229;-61
2021/09/15 05:24:28;;;;;;;;;11.00;9.75;;;;;22.56;57.05;100553.88;5018762;28;45274;-59
2021/09/15 05:26:53;;;;;;;;;8.25;6.25;;;;;22.58;56.85;100549.28;5018639;28;45215;-60
2021/09/15 05:29:19;;;;;;;;;9.75;8.25;;;;;22.57;57.00;100550.25;5018736;28;45221;-60
2021/09/15 05:31:44;;;;;;;;;8.00;6.00;;;;;22.56;56.66;100553.88;5018784;28;45325;-59
2021/09/15 05:34:09;;;;;;;;;8.25;7.50;;;;;22.54;56.65;100551.31;5012566;28;45249;-58
2021/09/15 05:36:35;;;;;;;;;9.00;7.00;;;;;22.54;56.91;100553.97;5000510;28;45388;-58
2021/09/15 05:39:00;;;;;;;;;10.00;9.00;;;;;22.56;56.52;100559.22;5002252;28;45402;-49
2021/09/15 05:41:25;;;;;;;;;7.00;6.00;;;;;22.55;56.75;100555.72;5002498;28;45312;-51
2021/09/15 05:43:51;;;;;;;;;8.75;7.00;;;;;22.55;56.97;100560.19;4984318;28;46993;-52
2021/09/15 05:46:16;;;;;;;;;8.25;8.25;;;;;22.54;56.75;100562.03;5002647;28;45394;-50
2021/09/15 05:48:42;;;;;;;;;4.25;4.25;;;;;22.54;56.86;100563.81;5016236;28;45278;-51
2021/09/15 05:51:07;;;;;;;;;8.50;7.50;;;;;22.53;56.89;100564.81;5012447;28;45445;-51
2021/09/15 05:53:32;;;;;;;;;11.00;8.25;;;;;22.52;56.94;100571.97;5004374;28;46213;-52
2021/09/15 05:55:58;;;;;;;;;8.75;8.00;;;;;22.51;57.37;100572.91;5002265;28;45285;-53
2021/09/15 05:58:23;;;;;;;;;6.50;6.50;;;;;22.51;56.96;100580.09;5001551;28;45377;-50
2021/09/15 06:00:49;;;;;;;;;8.25;8.25;;;;;22.51;57.03;100582.78;5002098;28;45317;-62
2021/09/15 06:03:15;;;;;;;;;7.00;7.00;;;;;22.51;57.00;100582.78;5001853;28;46198;-55
2021/09/15 06:05:40;;;;;;;;;9.25;7.00;;;;;22.50;57.10;100583.75;5012909;28;45604;-58
2021/09/15 06:08:05;;;;;;;;;8.25;8.25;;;;;22.50;56.72;100581.06;5016729;28;45648;-58
2021/09/15 06:10:31;;;;;;;;;6.00;6.00;;;;;22.50;56.88;100578.38;5013024;28;45444;-59
2021/09/15 06:12:56;;;;;;;;;11.25;8.25;;;;;22.49;57.15;100579.34;5013658;28;46357;-57
2021/09/15 06:15:21;;;;;;;;;10.50;9.75;;;;;22.48;57.19;100578.50;5002403;28;45236;-58
2021/09/15 06:17:47;;;;;;;;;10.00;8.00;;;;;22.49;57.02;100580.22;5015005;28;45478;-58
2021/09/15 06:20:13;;;;;;;;;9.75;9.75;;;;;22.46;57.13;100577.72;5016319;28;45793;-58
2021/09/15 06:22:39;;;;;;;;;9.50;9.25;;;;;22.49;56.77;100582.00;5008502;28;45279;-60
2021/09/15 06:25:05;;;;;;;;;8.00;7.50;;;;;22.49;57.03;100582.00;5015700;28;45391;-61
2021/09/15 06:27:30;;;;;;;;;9.00;8.00;;;;;22.48;57.21;100586.53;5021630;28;45245;-60
2021/09/15 06:29:56;;;;;;;;;9.25;7.50;;;;;22.49;57.29;100587.38;5021022;28;45197;-60
2021/09/15 06:32:23;;;;;;;;;9.00;7.00;;;;;22.48;57.18;100588.34;5017625;28;45471;-60
2021/09/15 06:34:49;;;;;;;;;8.25;6.25;;;;;22.48;57.22;100586.53;5005614;28;45325;-60
2021/09/15 06:37:15;;;;;;;;;8.25;6.75;;;;;22.48;57.19;100588.34;5001334;28;45309;-60
2021/09/15 06:39:41;;;;;;;;;9.00;6.50;;;;;22.49;57.35;100587.38;5012691;28;46005;-60
2021/09/15 06:42:07;;;;;;;;;9.00;8.00;;;;;22.48;57.45;100588.34;5001257;28;46122;-60
2021/09/15 06:44:32;;;;;;;;;11.00;9.00;;;;;22.48;57.26;100591.88;5001221;28;45232;-60
2021/09/15 06:46:58;;;;;;;;;9.50;7.00;;;;;22.48;57.26;100601.75;5019496;28;45338;-60
2021/09/15 06:49:23;;;;;;;;;8.50;7.50;;;;;22.47;57.36;100600.03;5007375;28;45554;-60
2021/09/15 06:51:48;;;;;;;;;7.00;6.00;;;;;22.46;57.44;100604.50;5001270;28;46274;-60
2021/09/15 06:54:14;;;;;;;;;9.75;8.00;;;;;22.46;57.33;100609.00;5001249;28;45309;-60
2021/09/15 06:56:39;;;;;;;;;9.25;8.50;;;;;22.45;57.25;100601.94;5001170;28;45487;-60
2021/09/15 06:59:05;;;;;;;;;9.00;8.00;;;;;22.43;57.45;100604.72;5001089;28;45331;-60
2021/09/15 07:01:30;;;;;;;;;8.00;7.25;;;;;22.44;57.20;100600.22;5000863;28;46285;-60
2021/09/15 07:03:55;;;;;;;;;9.00;8.00;;;;;22.43;57.47;100601.16;5001024;28;45317;-60
2021/09/15 07:06:21;;;;;;;;;5.50;5.50;;;;;22.42;57.72;100604.81;5012929;28;45325;-60
2021/09/15 07:08:50;;;;;;;;;10.00;8.75;;;;;22.42;57.77;100608.34;5013055;28;45441;-61
2021/09/15 07:11:15;;;;;;;;;11.50;8.75;;;;;22.33;57.62;100593.72;5013427;28;46210;-60
2021/09/15 07:13:40;;;;;;;;;12.00;7.25;;;;;22.38;57.74;100614.88;5017725;28;45412;-60
2021/09/15 07:16:06;;;;;;;;;8.50;7.50;;;;;22.35;57.85;100623.94;5018242;28;45477;-60
2021/09/15 07:18:31;;;;;;;;;9.50;8.00;;;;;22.34;57.63;100621.31;5006954;28;45257;-60
2021/09/15 07:20:56;;;;;;;;;8.25;7.75;;;;;22.31;57.57;100625.06;5000728;28;45317;-60
2021/09/15 07:23:22;;;;;;;;;9.75;9.75;;;;;22.28;57.79;100624.44;5000749;28;45207;-60
2021/09/15 07:25:47;;;;;;;;;10.25;9.00;;;;;22.21;57.65;100624.84;5000847;28;45273;-60
2021/09/15 07:28:13;;;;;;;;;10.75;10.50;;;;;22.17;57.80;100630.47;5000472;28;45409;-60
2021/09/15 07:30:38;;;;;;;;;10.50;10.00;;;;;22.13;58.03;100631.63;5000463;28;46289;-60
2021/09/15 07:33:03;;;;;;;;;11.50;10.50;;;;;22.12;57.89;100638.78;5000659;28;45305;-60
2021/09/15 07:35:29;;;;;;;;;11.00;9.75;;;;;22.11;58.22;100642.41;5000801;28;45646;-61
2021/09/15 07:37:54;;;;;;;;;8.25;8.25;;;;;22.06;57.87;100640.06;5000729;28;45267;-60
2021/09/15 07:40:19;;;;;;;;;8.50;7.50;;;;;22.03;57.72;100644.75;5000317;28;46238;-60
2021/09/15 07:42:45;;;;;;;;;11.00;7.75;;;;;21.99;58.06;100643.22;5000256;28;45257;-60
2021/09/15 07:45:12;;;;;;;;;9.00;8.00;;;;;21.93;58.51;100633.75;5006366;28;45280;-60
2021/09/15 07:47:41;;;;;;;;;7.00;7.00;;;;;21.89;58.01;100634.94;5006792;28;45257;-60
2021/09/15 07:50:08;;;;;;;;;8.50;8.50;;;;;21.86;58.62;100640.44;5006970;28;46253;-60
2021/09/15 07:52:34;;;;;;;;;9.25;7.50;;;;;21.82;58.66;100642.47;5019848;28;45218;-60
2021/09/15 07:54:59;;;;;;;;;6.25;5.25;;;;;21.79;58.76;100648.00;5020220;28;45199;-61
2021/09/15 07:57:25;;;;;;;;;6.00;6.00;;;;;21.74;58.79;100640.28;5019813;28;45808;-60
2021/09/15 07:59:50;;;;;;;;;10.50;8.00;;;;;21.72;59.01;100628.84;5019423;28;45375;-61
2021/09/15 08:02:16;;;;;;;;;9.50;8.00;;;;;21.69;58.60;100637.03;5020061;28;45328;-61
2021/09/15 08:04:41;;;;;;;;;8.25;7.50;;;;;21.63;58.78;100626.72;5018619;28;45247;-61
2021/09/15 08:07:06;;;;;;;;;7.50;7.25;;;;;21.62;58.60;100626.81;5019993;28;45459;-61
2021/09/15 08:09:32;;;;;;;;;6.00;6.00;;;;;21.61;59.04;100636.66;5019618;28;46066;-61
2021/09/15 08:11:57;;;;;;;;;9.75;7.50;;;;;21.59;58.70;100638.56;5019650;28;45413;-61
2021/09/15 08:14:23;;;;;;;;;12.00;11.50;;;;;21.59;58.68;100638.56;5019570;28;45433;-61
2021/09/15 08:16:48;;;;;;;;;8.50;7.50;;;;;21.58;58.87;100642.19;5019711;28;45447;-61
2021/09/15 08:19:14;;;;;;;;;10.00;7.00;;;;;21.60;58.88;100648.31;5000741;28;45250;-61
2021/09/15 08:21:40;;;;;;;;;7.00;7.00;;;;;21.59;59.28;100646.59;4999970;28;45301;-61
2021/09/15 08:24:06;;;;;;;;;13.00;11.50;;;;;21.57;59.10;100644.00;4999941;28;45376;-61
2021/09/15 08:26:31;;;;;;;;;12.25;11.25;;;;;21.61;59.39;100651.84;4999922;28;45334;-61
2021/09/15 08:28:56;;;;;;;;;8.00;8.00;;;;;21.61;59.16;100654.50;5013136;28;46172;-61
2021/09/15 08:31:22;;;;;;;;;7.25;7.25;;;;;21.57;59.12;100651.16;5010339;28;45683;-61
2021/09/15 08:33:47;;;;;;;;;8.50;7.00;;;;;21.60;58.97;100659.00;5001435;28;45649;-61
2021/09/15 08:36:13;;;;;;;;;12.00;11.00;;;;;21.59;59.32;100662.63;4999679;28;45417;-61
2021/09/15 08:38:39;;;;;;;;;11.75;10.25;;;;;21.58;60.10;100655.56;4999477;28;46281;-61
2021/09/15 08:41:04;;;;;;;;;11.50;11.50;;;;;21.56;59.83;100660.16;4998391;28;45270;-61
2021/09/15 08:43:33;;;;;;;;;10.25;10.25;;;;;21.59;59.92;100666.16;4999643;28;45231;-60
2021/09/15 08:46:01;;;;;;;;;9.00;9.00;;;;;21.57;60.14;100659.19;4999684;28;45278;-60
2021/09/15 08:48:28;;;;;;;;;12.75;12.25;;;;;21.56;59.97;100662.84;4999361;28;46427;-60
2021/09/15 08:50:54;;;;;;;;;12.75;10.75;;;;;21.56;59.99;100666.34;4999482;28;45435;-60
2021/09/15 08:53:19;;;;;;;;;7.25;7.25;;;;;21.56;60.19;100662.84;4999506;28;45321;-60
2021/09/15 08:55:46;;;;;;;;;9.75;9.75;;;;;21.58;60.45;100668.94;4998155;28;45639;-59
2021/09/15 08:58:16;;;;;;;;;10.00;8.50;;;;;21.59;60.18;100673.31;4997456;28;47342;-60
2021/09/15 09:00:43;;;;;;;;;9.00;9.00;;;;;21.61;59.98;100673.22;4999344;28;45266;-60
2021/09/15 09:03:08;;;;;;;;;13.00;13.00;;;;;21.63;60.30;100677.50;4999609;28;45230;-60
2021/09/15 09:05:35;;;;;;;;;11.50;9.25;;;;;21.65;59.99;100672.94;5012837;28;45490;-60
2021/09/15 09:08:00;;;;;;;;;11.50;11.50;;;;;21.69;60.70;100671.78;5019448;28;45439;-60
2021/09/15 09:10:33;;;;;;;;;12.00;12.00;;;;;21.71;60.49;100669.00;5019424;28;45302;-60
2021/09/15 09:12:58;;;;;;;;;11.75;10.50;;;;;21.73;60.47;100675.97;5022995;28;45523;-60
2021/09/15 09:15:28;;;;;;;;;11.75;11.25;;;;;21.74;60.10;100666.16;5022807;28;45554;-60
2021/09/15 09:17:59;;;;;;;;;11.25;9.75;;;;;21.75;60.12;100671.41;5014591;28;45960;-60
2021/09/15 09:20:32;;;;;;;;;14.75;12.75;;;;;21.80;60.38;100675.59;5002716;28;45345;-60
2021/09/15 09:23:12;;;;;;;;;13.25;10.00;;;;;21.80;60.62;100675.59;5002594;28;45310;-60
2021/09/15 09:25:37;;;;;;;;;10.50;10.50;;;;;21.81;60.69;100674.66;5002407;28;45378;-60
2021/09/15 09:28:21;;;;;;;;;14.00;14.00;;;;;21.82;60.41;100677.22;5002048;28;46148;-60
2021/09/15 09:30:49;;;;;;;;;13.00;12.25;;;;;21.84;60.19;100677.16;5009480;28;45390;-60
2021/09/15 09:33:15;;;;;;;;;16.00;14.25;;;;;21.86;60.81;100678.78;5022214;28;45380;-60
2021/09/15 09:35:47;;;;;;;;;19.50;15.50;;;;;21.88;60.34;100670.66;5022142;28;45432;-60
2021/09/15 09:38:35;;;;;;;;;14.00;12.50;;;;;21.94;60.59;100686.31;5021870;28;45585;-60
2021/09/15 09:41:08;;;;;;;;;23.25;18.25;;;;;21.98;60.69;100682.47;5022040;28;45436;-60
2021/09/15 09:43:39;;;;;;;;;18.75;16.50;;;;;22.03;60.83;100691.06;5021644;28;45328;-60
2021/09/15 09:46:06;;;;;;;;;21.75;19.00;;;;;22.09;61.08;100681.81;5021927;28;45547;-60
2021/09/15 09:48:37;;;;;;;;;21.25;19.50;;;;;22.15;60.85;100681.44;5021615;28;45493;-60
2021/09/15 09:51:21;;;;;;;;;18.00;17.75;;;;;22.22;60.84;100671.19;5020550;28;45234;-60
2021/09/15 09:53:48;;;;;;;;;22.50;20.75;;;;;22.27;60.92;100677.09;5021847;28;45498;-60
2021/09/15 09:56:14;;;;;;;;;19.75;17.00;;;;;22.34;60.85;100678.41;5020135;28;45503;-60
2021/09/15 09:58:44;;;;;;;;;15.25;15.25;;;;;22.37;60.98;100670.22;5021450;28;45325;-61
2021/09/15 10:01:16;;;;;;;;;18.25;15.25;;;;;22.42;60.81;100677.94;5021661;28;45376;-61
2021/09/15 10:03:43;;;;;;;;;17.50;16.75;;;;;22.48;61.09;100677.53;5021955;28;45425;-60
2021/09/15 10:06:09;;;;;;;;;21.00;18.25;;;;;22.50;60.67;100674.75;5021020;28;45351;-61
2021/09/15 10:08:35;;;;;;;;;20.00;18.50;;;;;22.54;61.03;100676.28;5021579;28;45539;-61
2021/09/15 10:11:00;;;;;;;;;19.50;18.50;;;;;22.59;61.04;100679.53;5021464;28;45330;-61
2021/09/15 10:13:25;;;;;;;;;19.75;19.00;;;;;22.62;60.95;100678.47;5020034;28;45572;-61
2021/09/15 10:15:58;;;;;;;;;17.50;17.00;;;;;22.65;60.65;100679.09;5021427;28;45280;-61
2021/09/15 10:18:26;;;;;;;;;25.50;17.00;;;;;22.67;60.86;100682.53;5000130;28;47092;-61
2021/09/15 10:20:55;;;;;;;;;20.25;17.75;;;;;22.69;60.60;100680.63;5020371;28;45321;-61
2021/09/15 10:23:41;;;;;;;;;16.75;13.50;;;;;22.71;60.78;100672.50;5020109;28;45217;-61
2021/09/15 10:26:33;;;;;;;;;16.75;16.50;;;;;22.73;60.70;100675.94;5003490;28;45544;-61
2021/09/15 10:29:20;;;;;;;;;16.00;13.50;;;;;22.75;60.76;100665.13;5020734;28;46389;-61
2021/09/15 10:31:56;;;;;;;;;14.00;13.50;;;;;22.75;60.74;100668.66;5021091;28;45279;-61
2021/09/15 10:34:36;;;;;;;;;20.00;18.75;;;;;22.75;61.34;100668.66;5021387;28;45251;-61
2021/09/15 10:37:10;;;;;;;;;11.25;10.00;;;;;22.73;61.00;100668.75;5020930;28;45552;-61
2021/09/15 10:39:59;;;;;;;;;15.00;13.75;;;;;22.71;61.09;100672.50;5021099;28;45297;-61
2021/09/15 10:42:33;;;;;;;;;15.25;12.00;;;;;22.69;60.80;100675.28;5020940;28;45352;-61
2021/09/15 10:45:18;;;;;;;;;10.75;10.75;;;;;22.69;61.08;100680.63;5021069;28;45183;-61
2021/09/15 10:47:45;;;;;;;;;14.00;13.00;;;;;22.67;60.85;100682.53;5019715;28;46049;-61
2021/09/15 10:50:33;;;;;;;;;17.25;13.50;;;;;22.66;61.18;100686.19;5020879;28;46079;-61
2021/09/15 10:53:07;;;;;;;;;13.25;12.25;;;;;22.66;61.24;100686.19;5020686;28;45442;-61
2021/09/15 10:55:41;;;;;;;;;13.25;13.00;;;;;22.65;60.98;100688.97;5021230;28;45315;-61
2021/09/15 10:58:22;;;;;;;;;11.50;11.50;;;;;22.66;61.13;100693.38;5020348;28;45474;-61
2021/09/15 11:00:54;;;;;;;;;11.75;11.75;;;;;22.66;61.09;100686.19;5020596;28;46425;-61
2021/09/15 11:03:41;;;;;;;;;19.75;17.50;;;;;22.66;61.36;100686.19;5020893;28;45351;-61
2021/09/15 11:06:07;;;;;;;;;12.75;10.25;;;;;22.67;61.37;100687.91;5020437;28;45239;-61
2021/09/15 11:08:37;;;;;;;;;12.25;11.25;;;;;22.69;61.17;100690.47;5020717;28;45446;-61
2021/09/15 11:11:08;;;;;;;;;11.00;10.75;;;;;22.70;60.95;100690.41;5020515;28;45347;-61
2021/09/15 11:13:33;;;;;;;;;8.25;6.50;;;;;22.72;61.51;100684.94;5020309;28;45193;-61
2021/09/15 11:16:52;;;;;;;;;6.50;6.50;;;;;22.73;61.67;100694.69;5019294;28;45285;-61
2021/09/15 11:19:30;;;;;;;;;8.75;8.00;;;;;22.72;61.64;100688.44;4978560;28;45640;-61
2021/09/15 11:21:59;;;;;;;;;7.25;6.25;;;;;22.74;61.71;100691.03;5000452;28;46666;-61
2021/09/15 11:24:29;;;;;;;;;5.25;4.50;;;;;22.75;61.33;100692.75;5000723;28;45234;-61
2021/09/15 11:27:17;;;;;;;;;3.75;3.75;;;;;22.78;61.46;100689.88;5000705;28;45314;-61
2021/09/15 11:29:51;;;;;;;;;2.00;2.00;;;;;22.77;61.21;100685.47;5000568;28;45444;-61